Time;durP1;ratioP1;P1;durP2;ratioP2;P2;SDS_P1;SDS_P2;PMS_P1;PMS_P2;Temp;Humidity;BMP_temperature;BMP_pressure;BME280_temperature;BME280_humidity;BME280_pressure;Samples;Min_cycle;Max_cycle;Signal;HPM_P1;HPM_P2
2022/01/20 00:01:58;;;;;;;15.82;2.92;;;;;;;4.83;100.00;102608.13;5103870;27;20050;-88
2022/01/20 00:04:36;;;;;;;10.27;2.35;;;;;;;4.17;100.00;102610.44;5114212;28;20049;-88
2022/01/20 00:07:27;;;;;;;23.95;3.40;;;;;;;4.25;100.00;102602.81;5113821;28;20043;-87
2022/01/20 00:28:39;;;;;;;12.57;2.80;;;;;;;4.50;99.77;102642.19;5134806;27;20051;-87
2022/01/20 00:34:54;;;;;;;11.70;2.88;;;;;;;5.02;94.01;102632.66;5119618;27;20054;-88
2022/01/20 00:39:28;;;;;;;9.25;2.10;;;;;;;5.12;93.19;102659.66;5122490;27;20043;-87
2022/01/20 00:41:55;;;;;;;12.05;3.03;;;;;;;4.59;92.68;102646.66;5107182;27;20715;-87
2022/01/20 00:44:24;;;;;;;14.82;2.63;;;;;;;4.89;93.76;102656.69;5124777;27;20381;-87
2022/01/20 00:46:51;;;;;;;13.80;2.90;;;;;;;4.88;92.10;102637.63;5105631;27;20051;-87
2022/01/20 00:49:18;;;;;;;12.82;2.63;;;;;;;4.85;92.88;102654.88;5126086;27;20043;-86
2022/01/20 00:51:45;;;;;;;10.25;3.05;;;;;;;4.67;92.80;102660.63;5110935;28;20370;-86
2022/01/20 00:54:17;;;;;;;13.98;3.40;;;;;;;4.73;90.90;102656.44;5127614;27;20057;-86
2022/01/20 00:56:44;;;;;;;14.30;3.20;;;;;;;4.86;90.24;102656.63;5124883;27;20043;-87
2022/01/20 00:59:13;;;;;;;11.70;3.05;;;;;;;4.54;89.23;102709.69;5105366;27;20048;-87
2022/01/20 01:01:40;;;;;;;11.27;2.55;;;;;;;4.72;89.07;102679.75;5113557;27;20048;-86
2022/01/20 01:04:07;;;;;;;16.25;2.38;;;;;;;4.71;88.35;102704.84;5124772;27;20047;-86
2022/01/20 01:07:02;;;;;;;10.57;2.58;;;;;;;4.65;87.34;102688.28;5107046;27;20047;-86
2022/01/20 01:09:29;;;;;;;8.25;2.28;;;;;;;4.55;85.49;102684.63;5106411;27;20091;-85
2022/01/20 01:12:01;;;;;;;11.88;2.33;;;;;;;4.51;86.21;102700.97;5106354;28;20047;-87
2022/01/20 01:14:30;;;;;;;16.75;3.28;;;;;;;5.11;84.59;102704.66;5108596;27;20494;-86
2022/01/20 01:24:42;;;;;;;22.60;3.85;;;;;;;4.72;85.51;102691.00;5126490;28;20075;-86
2022/01/20 01:27:10;;;;;;;16.63;2.75;;;;;;;4.59;86.07;102696.81;5123737;28;20055;-87
2022/01/20 01:32:50;;;;;;;12.38;2.40;;;;;;;4.65;86.30;102690.88;5123595;27;20396;-86
2022/01/20 01:35:17;;;;;;;17.00;2.72;;;;;;;4.65;87.42;102698.66;5130111;27;20055;-87
2022/01/20 01:40:29;;;;;;;12.20;2.58;;;;;;;4.97;84.82;102709.59;5130420;27;21283;-87
2022/01/20 01:42:57;;;;;;;15.65;2.80;;;;;;;5.13;83.53;102710.72;5111740;27;20092;-86
2022/01/20 01:45:33;;;;;;;11.82;2.30;;;;;;;4.61;82.39;102707.25;5109142;27;20134;-86
2022/01/20 01:48:01;;;;;;;19.27;4.43;;;;;;;4.66;84.07;102708.19;5132104;27;20047;-87
2022/01/20 01:50:28;;;;;;;21.38;3.53;;;;;;;4.64;82.43;102715.94;5114210;27;20039;-87
2022/01/20 01:52:57;;;;;;;18.67;3.80;;;;;;;4.94;81.30;102707.84;5111165;27;20050;-87
2022/01/20 01:55:24;;;;;;;13.82;2.75;;;;;;;4.96;81.48;102723.44;5112113;27;20722;-87
2022/01/20 01:57:51;;;;;;;11.60;2.65;;;;;;;4.54;80.00;102675.97;5114222;27;20050;-87
2022/01/20 02:00:19;;;;;;;13.38;3.22;;;;;;;4.97;80.45;102724.31;5111589;27;20055;-87
2022/01/20 02:02:46;;;;;;;13.80;3.10;;;;;;;4.97;79.41;102711.34;5110253;27;20043;-87
2022/01/20 02:05:15;;;;;;;14.85;3.13;;;;;;;5.06;80.32;102717.53;5124909;27;20139;-87
2022/01/20 02:18:52;;;;;;;14.30;2.85;;;;;;;4.64;81.53;102717.66;5131400;27;20050;-86
2022/01/20 02:21:19;;;;;;;9.88;2.10;;;;;;;4.94;80.30;102725.16;5104607;27;20046;-87
2022/01/20 02:23:47;;;;;;;20.98;2.70;;;;;;;4.81;82.92;102717.97;5110906;27;20644;-87
2022/01/20 02:26:14;;;;;;;13.57;2.80;;;;;;;4.93;83.06;102733.78;5108978;27;20069;-86
2022/01/20 02:28:43;;;;;;;14.77;3.47;;;;;;;5.28;81.77;102739.56;5117180;27;20055;-86
2022/01/20 02:31:10;;;;;;;20.13;2.60;;;;;;;4.38;83.40;102687.78;5126311;27;20047;-86
2022/01/20 02:33:37;;;;;;;24.15;3.88;;;;;;;4.82;82.25;102688.59;5131427;27;20039;-86
2022/01/20 02:36:14;;;;;;;10.00;2.72;;;;;;;5.15;81.64;102753.19;5127723;27;20047;-87
2022/01/20 02:38:50;;;;;;;12.15;3.00;;;;;;;5.30;81.05;102734.41;5129497;28;20058;-86
2022/01/20 02:46:49;;;;;;;23.17;3.17;;;;;;;5.11;81.04;102736.66;5123582;28;20047;-87
2022/01/20 02:49:17;;;;;;;12.32;2.70;;;;;;;4.94;80.74;102751.09;5104866;28;20047;-85
2022/01/20 02:51:52;;;;;;;15.52;2.65;;;;;;;5.16;80.19;102744.56;5129853;27;20417;-86
2022/01/20 02:54:20;;;;;;;14.38;2.28;;;;;;;5.00;80.97;102756.41;5103093;28;20127;-87
2022/01/20 02:56:47;;;;;;;12.15;2.35;;;;;;;5.11;80.40;102736.66;5107392;28;20043;-85
2022/01/20 02:59:15;;;;;;;12.05;3.55;;;;;;;4.94;79.50;102751.97;5110892;28;20047;-86
2022/01/20 03:01:41;;;;;;;16.95;3.00;;;;;;;4.95;80.85;102758.91;5109823;28;20050;-86
2022/01/20 03:04:10;;;;;;;16.52;3.75;;;;;;;4.85;80.43;102749.22;5108238;28;20469;-86
2022/01/20 03:06:36;;;;;;;13.20;2.83;;;;;;;5.01;80.38;102715.72;5105525;28;20047;-86
2022/01/20 03:09:04;;;;;;;17.13;3.22;;;;;;;5.19;79.84;102754.09;5121908;28;20482;-87
2022/01/20 03:11:31;;;;;;;11.88;2.35;;;;;;;5.11;79.28;102746.19;5128663;27;20058;-85
2022/01/20 03:13:58;;;;;;;13.45;2.33;;;;;;;5.22;80.13;102723.88;5121393;28;20370;-85
2022/01/20 03:16:25;;;;;;;9.98;1.83;;;;;;;5.41;78.91;102737.16;5107688;28;20048;-86
2022/01/20 03:18:52;;;;;;;13.07;3.00;;;;;;;5.18;78.06;102722.06;5123457;28;20047;-85
2022/01/20 03:21:19;;;;;;;10.38;2.65;;;;;;;5.24;78.42;102727.38;5123783;28;20050;-86
2022/01/20 03:23:45;;;;;;;13.43;2.42;;;;;;;5.50;77.84;102739.91;5109702;28;20043;-86
2022/01/20 03:26:12;;;;;;;7.68;2.00;;;;;;;5.40;77.15;102725.00;5105422;28;20382;-86
2022/01/20 03:28:39;;;;;;;7.80;2.33;;;;;;;5.60;76.57;102728.81;5122708;28;20057;-86
2022/01/20 03:31:06;;;;;;;19.02;2.65;;;;;;;5.43;76.09;102744.13;5114945;28;20059;-87
2022/01/20 03:33:33;;;;;;;7.53;1.77;;;;;;;5.68;76.78;102754.91;5125934;28;20043;-87
2022/01/20 03:36:00;;;;;;;16.33;3.25;;;;;;;5.49;77.27;102764.16;5066983;27;1273346;-87
2022/01/20 03:38:26;;;;;;;11.68;1.95;;;;;;;5.23;77.19;102741.22;5123482;27;20039;-86
2022/01/20 03:40:53;;;;;;;21.45;2.35;;;;;;;5.11;78.12;102739.28;5129865;27;20053;-86
2022/01/20 03:43:20;;;;;;;11.05;2.70;;;;;;;5.33;77.68;102740.53;5125378;27;20057;-87
2022/01/20 03:45:50;;;;;;;16.52;2.20;;;;;;;5.50;77.04;102755.50;5126451;27;20444;-87
2022/01/20 03:48:17;;;;;;;15.15;2.67;;;;;;;5.33;76.73;102750.91;5107431;27;20043;-87
2022/01/20 03:50:59;;;;;;;10.90;2.75;;;;;;;5.46;77.12;102769.28;5113453;27;20054;-87
2022/01/20 03:53:28;;;;;;;11.75;2.22;;;;;;;5.59;76.64;102776.41;5104297;27;20049;-87
2022/01/20 03:55:56;;;;;;;12.35;2.45;;;;;;;5.36;77.24;102765.66;5123490;27;20047;-88
2022/01/20 03:58:23;;;;;;;12.40;2.75;;;;;;;5.47;78.13;102763.22;5126190;27;20047;-87
2022/01/20 04:00:50;;;;;;;14.77;2.83;;;;;;;5.22;77.29;102738.59;5109713;27;20048;-86
2022/01/20 04:03:18;;;;;;;11.30;2.92;;;;;;;5.02;78.64;102748.63;5106326;27;20534;-87
2022/01/20 04:06:03;;;;;;;9.10;2.03;;;;;;;5.27;78.39;102722.22;5112876;27;20047;-87
2022/01/20 04:08:31;;;;;;;16.65;3.08;;;;;;;5.76;77.43;102765.44;5123823;27;20040;-86
2022/01/20 04:11:05;;;;;;;17.33;3.25;;;;;;;5.28;78.49;102762.94;5112822;27;20057;-87
2022/01/20 04:13:32;;;;;;;14.57;2.47;;;;;;;5.26;78.69;102756.84;5104473;28;20063;-87
2022/01/20 04:16:02;;;;;;;11.32;2.35;;;;;;;5.42;78.73;102763.19;5121792;27;20055;-86
2022/01/20 04:18:29;;;;;;;18.73;3.45;;;;;;;5.24;80.32;102779.34;5126312;27;20135;-86
2022/01/20 04:20:56;;;;;;;16.33;2.05;;;;;;;5.18;80.39;102758.44;5107202;27;20047;-86
2022/01/20 04:23:23;;;;;;;12.30;2.20;;;;;;;5.36;79.75;102763.06;5123282;27;20036;-86
2022/01/20 04:25:49;;;;;;;17.05;2.97;;;;;;;5.16;79.39;102749.75;5104687;28;20043;-86
2022/01/20 04:28:16;;;;;;;11.13;3.63;;;;;;;4.97;79.05;102709.59;5124071;27;20049;-86
2022/01/20 04:30:43;;;;;;;10.05;2.15;;;;;;;5.08;80.25;102752.22;5124182;27;20050;-86
2022/01/20 04:33:10;;;;;;;8.90;2.65;;;;;;;4.95;79.66;102726.88;5116267;27;20073;-86
2022/01/20 04:35:37;;;;;;;15.85;2.17;;;;;;;4.75;79.93;102716.16;5115912;27;20089;-86
2022/01/20 04:38:04;;;;;;;21.00;2.53;;;;;;;5.31;79.73;102806.25;5116310;27;20049;-86
2022/01/20 04:40:37;;;;;;;8.07;1.77;;;;;;;5.62;79.37;102805.06;5115470;27;20055;-86
2022/01/20 04:43:04;;;;;;;;;;;;;;;5.70;78.14;102808.66;5116572;27;20047;-86
2022/01/20 04:45:36;;;;;;;12.15;3.95;;;;;;;5.16;78.06;102806.00;5133305;27;19920;-86
2022/01/20 04:48:19;;;;;;;13.52;2.20;;;;;;;5.47;77.96;102807.41;5116647;27;20101;-86
2022/01/20 04:59:03;;;;;;;13.73;2.38;;;;;;;5.20;77.42;102810.41;5134300;27;20066;-86
2022/01/20 05:01:31;;;;;;;13.68;2.30;;;;;;;5.33;77.22;102795.06;5115596;27;20047;-87
2022/01/20 05:03:58;;;;;;;13.38;2.00;;;;;;;5.65;75.83;102806.84;5134092;27;20047;-87
2022/01/20 05:06:25;;;;;;;12.95;2.15;;;;;;;5.16;76.65;102791.31;5115708;27;20039;-86
2022/01/20 05:08:52;;;;;;;10.10;2.58;;;;;;;4.67;77.84;102759.22;5133733;27;20408;-87
2022/01/20 05:11:19;;;;;;;10.88;2.03;;;;;;;5.33;77.75;102820.19;5128492;27;20043;-86
2022/01/20 05:13:46;;;;;;;15.77;2.80;;;;;;;5.16;78.28;102845.84;5134024;27;20057;-87
2022/01/20 05:16:13;;;;;;;11.65;2.88;;;;;;;5.19;78.36;102811.25;5134121;27;20051;-86
2022/01/20 05:18:40;;;;;;;10.77;2.05;;;;;;;5.33;77.49;102821.03;5115863;28;20051;-86
2022/01/20 05:21:07;;;;;;;10.13;2.05;;;;;;;5.14;78.86;102839.75;5111278;28;20400;-86
2022/01/20 05:23:34;;;;;;;13.20;1.95;;;;;;;5.33;78.71;102821.03;5095273;28;20043;-86
2022/01/20 05:26:00;;;;;;;16.42;2.33;;;;;;;5.08;78.81;102834.41;5095061;28;20048;-86
2022/01/20 05:28:27;;;;;;;11.85;2.22;;;;;;;5.38;78.62;102817.66;5112924;28;20043;-86
2022/01/20 05:30:54;;;;;;;18.55;2.22;;;;;;;5.26;77.41;102790.63;5133398;27;20058;-86
2022/01/20 05:33:21;;;;;;;9.30;2.83;;;;;;;5.18;78.08;102793.94;5114569;28;20043;-86
2022/01/20 05:35:47;;;;;;;10.68;2.40;;;;;;;5.28;77.14;102801.03;5132990;28;20385;-86
2022/01/20 05:38:14;;;;;;;11.38;3.17;;;;;;;5.16;77.21;102786.09;5098592;28;20047;-87
2022/01/20 05:40:41;;;;;;;11.43;2.10;;;;;;;4.94;77.60;102808.22;5112714;28;20066;-87
2022/01/20 05:43:08;;;;;;;11.20;2.22;;;;;;;5.19;77.23;102832.91;5113626;28;20054;-88
2022/01/20 05:45:35;;;;;;;21.65;2.97;;;;;;;5.25;76.99;102842.53;5098319;28;20464;-87
2022/01/20 05:48:13;;;;;;;15.30;3.15;;;;;;;5.64;76.30;102852.75;5115376;28;20131;-87
2022/01/20 05:50:41;;;;;;;12.38;2.92;;;;;;;5.01;75.89;102812.69;5111141;28;20067;-88
2022/01/20 05:53:09;;;;;;;17.70;2.53;;;;;;;4.84;77.34;102872.03;5129374;28;20054;-88
2022/01/20 05:55:41;;;;;;;10.40;2.42;;;;;;;5.11;76.26;102861.31;5133249;28;20047;-87
2022/01/20 05:58:08;;;;;;;7.80;1.65;;;;;;;4.85;76.39;102833.97;5133982;28;20130;-89
2022/01/20 06:00:36;;;;;;;11.60;2.30;;;;;;;5.02;75.57;102824.78;5115012;28;20051;-88
2022/01/20 06:05:50;;;;;;;12.43;2.63;;;;;;;4.83;73.42;102853.84;5132714;28;20116;-88
2022/01/20 06:08:17;;;;;;;13.68;2.85;;;;;;;5.00;73.73;102880.16;5115556;28;20362;-88
2022/01/20 06:10:44;;;;;;;9.70;1.85;;;;;;;5.31;73.10;102863.41;5117952;28;20047;-88
2022/01/20 06:13:11;;;;;;;15.88;3.15;;;;;;;5.25;73.15;102874.56;5133186;28;20082;-88
2022/01/20 06:15:38;;;;;;;13.55;2.45;;;;;;;4.99;72.78;102837.72;5115791;28;20602;-88
2022/01/20 06:18:05;;;;;;;13.07;3.25;;;;;;;5.42;71.98;102898.28;5131690;27;20043;-88
2022/01/20 06:20:33;;;;;;;8.25;1.80;;;;;;;5.41;73.03;102883.53;5115567;27;20048;-87
2022/01/20 06:23:00;;;;;;;8.60;2.05;;;;;;;5.27;72.12;102851.22;5104363;27;20089;-87
2022/01/20 06:25:30;;;;;;;26.98;4.40;;;;;;;5.25;71.71;102856.38;5136122;27;20046;-87
2022/01/20 06:27:57;;;;;;;12.75;2.30;;;;;;;5.21;71.90;102867.56;5136496;27;20476;-86
2022/01/20 06:30:25;;;;;;;18.27;2.40;;;;;;;4.75;71.11;102832.94;5117457;27;20044;-86
2022/01/20 06:32:53;;;;;;;18.65;3.72;;;;;;;5.06;71.52;102912.28;5115008;27;20051;-87
2022/01/20 06:35:20;;;;;;;13.23;2.28;;;;;;;5.54;70.77;102928.78;5126931;27;20040;-88
2022/01/20 06:37:47;;;;;;;8.02;2.03;;;;;;;5.12;69.79;102875.19;5116478;27;20054;-87
2022/01/20 06:40:14;;;;;;;14.50;2.35;;;;;;;5.18;70.10;102906.47;5118966;27;20850;-87
2022/01/20 06:42:42;;;;;;;8.18;1.90;;;;;;;5.29;70.52;102940.44;5111956;27;20043;-87
2022/01/20 06:45:15;;;;;;;11.73;3.13;;;;;;;5.29;71.23;102940.44;5126763;27;20104;-87
2022/01/20 06:47:41;;;;;;;18.17;2.88;;;;;;;5.17;71.32;102930.72;5108648;28;20040;-87
2022/01/20 06:50:11;;;;;;;8.20;1.73;;;;;;;5.66;70.63;102935.94;5107486;27;20126;-85
2022/01/20 06:52:39;;;;;;;9.90;2.53;;;;;;;5.45;71.68;102944.22;5114443;27;20477;-85
2022/01/20 06:55:10;;;;;;;19.25;3.45;;;;;;;5.47;71.89;102950.31;5108162;28;20397;-87
2022/01/20 06:57:38;;;;;;;6.38;1.70;;;;;;;5.47;72.67;102946.00;5129280;27;20088;-87
2022/01/20 07:00:12;;;;;;;16.85;2.63;;;;;;;5.40;72.43;102920.75;5129184;27;20054;-89
2022/01/20 07:02:39;;;;;;;9.60;2.00;;;;;;;5.69;73.17;102949.00;5136421;27;20075;-89
2022/01/20 07:05:08;;;;;;;16.35;3.88;;;;;;;5.50;73.65;102935.66;5118059;27;20100;-88
2022/01/20 07:07:35;;;;;;;7.22;1.70;;;;;;;5.70;73.66;102937.75;5118118;27;20378;-89
2022/01/20 07:10:03;;;;;;;11.60;2.25;;;;;;;5.60;74.99;102952.31;5135366;27;20125;-89
2022/01/20 07:12:30;;;;;;;13.30;2.60;;;;;;;5.28;76.96;102952.56;5136364;27;20130;-89
2022/01/20 07:14:57;;;;;;;6.55;1.77;;;;;;;5.21;79.87;102955.88;5116929;27;20047;-90
2022/01/20 07:17:24;;;;;;;11.25;2.47;;;;;;;4.98;81.06;102933.78;5114101;28;20062;-91
2022/01/20 07:19:51;;;;;;;10.00;1.73;;;;;;;5.18;82.98;102935.03;5112627;27;20563;-89
2022/01/20 07:22:18;;;;;;;11.75;2.00;;;;;;;5.17;82.72;102937.59;5131169;27;20050;-90
2022/01/20 07:24:47;;;;;;;15.43;3.22;;;;;;;5.20;83.98;102950.66;5116286;27;20470;-90
2022/01/20 07:27:15;;;;;;;16.08;2.55;;;;;;;4.81;87.54;102959.34;5111821;27;20055;-89
2022/01/20 07:29:42;;;;;;;11.18;2.17;;;;;;;5.16;86.38;102964.44;5106590;27;20043;-90
2022/01/20 07:32:09;;;;;;;11.23;2.45;;;;;;;5.11;88.18;102967.78;5128853;27;20054;-90
2022/01/20 07:34:36;;;;;;;13.73;2.35;;;;;;;4.93;90.02;102950.09;5127202;27;20052;-90
2022/01/20 07:37:05;;;;;;;9.73;2.60;;;;;;;4.81;91.89;102955.03;5125571;27;20039;-91
2022/01/20 07:39:32;;;;;;;8.63;2.10;;;;;;;5.07;91.75;102971.19;5108402;27;20071;-90
2022/01/20 07:42:00;;;;;;;8.00;2.25;;;;;;;5.08;92.65;102965.16;5124306;27;20098;-90
2022/01/20 07:44:27;;;;;;;6.15;2.25;;;;;;;5.23;92.76;102974.97;5118214;27;20046;-91
2022/01/20 07:46:53;;;;;;;14.40;2.38;;;;;;;4.63;96.27;102934.75;5110691;28;20070;-90
2022/01/20 07:49:21;;;;;;;14.90;2.65;;;;;;;4.78;99.91;102970.56;5113626;27;20043;-90
2022/01/20 07:51:47;;;;;;;12.57;2.33;;;;;;;4.81;100.00;102959.34;5104250;27;20076;-90
2022/01/20 07:54:16;;;;;;;9.65;3.10;;;;;;;4.95;99.59;102957.94;5126116;27;20048;-89
2022/01/20 07:56:43;;;;;;;11.13;2.70;;;;;;;4.98;100.00;102965.78;5114261;27;20415;-90
2022/01/20 07:59:10;;;;;;;14.57;2.70;;;;;;;4.91;100.00;102953.53;5112053;27;20386;-91
2022/01/20 08:01:38;;;;;;;10.18;2.33;;;;;;;4.86;100.00;102961.19;5113851;27;20050;-89
2022/01/20 08:04:04;;;;;;;14.30;2.78;;;;;;;5.01;100.00;102962.38;5109962;27;20931;-89
2022/01/20 08:06:40;;;;;;;13.82;2.45;;;;;;;4.79;100.00;102929.91;5122989;27;20045;-89
2022/01/20 08:09:08;;;;;;;13.32;2.97;;;;;;;4.81;100.00;102951.56;5112673;28;20047;-89
2022/01/20 08:11:36;;;;;;;10.70;3.08;;;;;;;4.95;100.00;102953.59;5113749;28;20086;-89
2022/01/20 08:14:02;;;;;;;11.00;2.35;;;;;;;5.07;100.00;102971.19;5113750;28;20059;-89
2022/01/20 08:16:29;;;;;;;11.52;3.55;;;;;;;4.93;100.00;102976.06;5096169;28;20044;-89
2022/01/20 08:18:56;;;;;;;14.93;3.20;;;;;;;5.01;100.00;102978.84;5096648;28;20135;-90
2022/01/20 08:21:23;;;;;;;9.25;1.90;;;;;;;5.30;100.00;102986.38;5111816;27;20137;-89
2022/01/20 08:23:49;;;;;;;13.80;3.13;;;;;;;5.04;100.00;102945.13;5116410;27;20039;-89
2022/01/20 08:26:16;;;;;;;10.32;2.58;;;;;;;5.33;100.00;102994.22;5133985;27;20043;-88
2022/01/20 08:28:44;;;;;;;9.80;2.13;;;;;;;5.20;100.00;102998.28;5117253;27;20455;-90
2022/01/20 08:31:11;;;;;;;10.20;2.05;;;;;;;5.07;100.00;102994.53;5116569;27;20054;-91
2022/01/20 08:33:37;;;;;;;13.75;2.30;;;;;;;4.86;100.00;102978.50;5115872;27;20058;-89
2022/01/20 08:36:05;;;;;;;12.18;2.33;;;;;;;5.23;100.00;103000.06;5115771;27;20058;-89
2022/01/20 08:38:37;;;;;;;12.57;2.67;;;;;;;4.93;100.00;102991.66;5117353;27;20392;-89
2022/01/20 08:41:04;;;;;;;14.00;2.53;;;;;;;5.04;100.00;102989.28;5102265;28;20043;-89
2022/01/20 08:43:38;;;;;;;11.82;2.75;;;;;;;5.07;100.00;102981.56;5097856;28;20137;-89
2022/01/20 08:46:11;;;;;;;15.48;2.10;;;;;;;5.14;100.00;102993.84;5097135;28;20043;-85
2022/01/20 08:48:39;;;;;;;9.25;1.90;;;;;;;5.03;100.00;102960.69;5090320;27;20043;-85
2022/01/20 08:51:07;;;;;;;9.35;2.00;;;;;;;5.23;100.00;102987.09;5108904;27;20057;-85
2022/01/20 08:53:34;;;;;;;15.82;2.70;;;;;;;5.28;100.00;102982.88;5127258;27;20051;-85
2022/01/20 08:56:01;;;;;;;11.32;4.03;;;;;;;5.07;100.00;102994.53;5111348;28;20046;-86
2022/01/20 08:58:31;;;;;;;14.52;2.70;;;;;;;5.38;100.00;102992.56;5103687;27;20138;-85
2022/01/20 09:01:00;;;;;;;11.18;2.00;;;;;;;5.23;100.00;102994.88;5105977;28;20047;-85
2022/01/20 09:03:27;;;;;;;15.65;2.88;;;;;;;5.20;100.00;102989.59;5113488;28;20055;-85
2022/01/20 09:05:55;;;;;;;15.00;2.35;;;;;;;5.43;100.00;102990.94;5115301;27;20039;-84
2022/01/20 09:08:22;;;;;;;14.68;2.95;;;;;;;5.44;100.00;102987.50;5125141;27;20050;-84
2022/01/20 09:10:54;;;;;;;7.80;3.42;;;;;;;5.40;100.00;103005.59;5101504;28;20049;-84
2022/01/20 09:16:08;;;;;;;7.13;1.90;;;;;;;5.50;100.00;103013.59;5121155;27;20039;-87
2022/01/20 09:18:35;;;;;;;13.95;2.80;;;;;;;5.60;100.00;103017.28;5113688;28;20066;-87
2022/01/20 09:21:03;;;;;;;15.00;3.20;;;;;;;5.57;100.00;103022.41;5126440;28;20058;-87
2022/01/20 09:23:30;;;;;;;10.00;1.95;;;;;;;4.94;100.00;103019.38;5106570;28;20050;-87
2022/01/20 09:25:57;;;;;;;10.55;2.42;;;;;;;5.04;100.00;102999.66;5108052;28;20043;-86
2022/01/20 09:28:24;;;;;;;12.45;2.22;;;;;;;5.23;100.00;103015.66;5130626;27;20050;-87
2022/01/20 09:30:56;;;;;;;11.13;2.03;;;;;;;4.83;100.00;103030.34;5115824;28;20053;-88
2022/01/20 09:33:27;;;;;;;12.63;2.08;;;;;;;4.88;100.00;103006.25;5098954;28;20066;-88
2022/01/20 09:35:56;;;;;;;16.50;3.33;;;;;;;5.09;100.00;103012.75;5106118;28;20047;-88
2022/01/20 09:38:23;;;;;;;13.95;2.22;;;;;;;5.31;100.00;103033.16;5102018;28;20124;-88
2022/01/20 09:40:50;;;;;;;12.00;2.53;;;;;;;5.11;100.00;103027.53;5131698;28;20055;-88
2022/01/20 09:43:17;;;;;;;7.10;1.70;;;;;;;4.85;100.00;103021.78;5126273;28;20052;-88
2022/01/20 09:45:49;;;;;;;12.18;2.42;;;;;;;4.89;100.00;103038.28;5126510;28;20054;-88
2022/01/20 09:48:16;;;;;;;15.87;2.73;;;;;;;4.80;100.00;102974.06;5127294;28;20077;-89
2022/01/20 09:50:44;;;;;;;13.05;2.50;;;;;;;5.07;100.00;103050.81;5110912;28;20050;-88
2022/01/20 09:53:11;;;;;;;8.15;2.45;;;;;;;4.77;100.00;103038.88;5121289;27;20039;-88
2022/01/20 09:55:38;;;;;;;15.60;2.88;;;;;;;4.79;100.00;103055.34;5124901;27;20406;-89
2022/01/20 09:58:06;;;;;;;15.52;3.00;;;;;;;4.72;100.00;103061.25;5106931;28;20047;-88
2022/01/20 10:00:34;;;;;;;7.65;2.17;;;;;;;4.79;100.00;103024.22;5112911;28;20408;-88
2022/01/20 10:03:09;;;;;;;10.60;3.30;;;;;;;5.04;100.00;103046.41;5124804;27;20052;-88
2022/01/20 10:05:48;;;;;;;11.40;2.15;;;;;;;4.91;100.00;103016.69;5106888;27;20048;-89
2022/01/20 10:08:21;;;;;;;9.07;1.95;;;;;;;5.08;100.00;103044.75;5108999;27;20128;-88
2022/01/20 10:10:48;;;;;;;10.32;2.25;;;;;;;4.96;100.00;103066.16;5117444;27;20505;-88
2022/01/20 10:13:18;;;;;;;10.50;2.28;;;;;;;4.85;100.00;103044.22;5105394;27;20044;-88
2022/01/20 10:15:58;;;;;;;11.60;2.22;;;;;;;4.77;100.00;103046.66;5113824;27;20047;-88
2022/01/20 10:18:26;;;;;;;9.00;2.10;;;;;;;4.96;100.00;103040.19;5127535;27;20498;-87
2022/01/20 10:21:02;;;;;;;12.27;2.28;;;;;;;4.68;100.00;103067.22;5120063;27;20058;-87
2022/01/20 10:23:45;;;;;;;11.77;2.42;;;;;;;4.75;100.00;103049.22;5117591;27;20112;-88
2022/01/20 10:26:15;;;;;;;8.80;1.83;;;;;;;4.82;100.00;103070.16;5118759;27;20043;-88
2022/01/20 10:29:10;;;;;;;11.07;2.45;;;;;;;4.57;100.00;103075.59;5109382;27;20061;-89
2022/01/20 10:31:43;;;;;;;10.98;2.10;;;;;;;4.87;100.00;103061.63;5130808;27;20051;-88
2022/01/20 10:34:34;;;;;;;8.15;2.00;;;;;;;4.90;100.00;103051.28;5112752;27;20480;-87
2022/01/20 10:37:15;;;;;;;15.70;2.10;;;;;;;5.21;100.00;103044.19;5106946;27;20131;-89
2022/01/20 10:39:47;;;;;;;11.93;1.73;;;;;;;5.35;100.00;103065.28;5115403;27;20056;-86
2022/01/20 10:42:23;;;;;;;7.63;1.63;;;;;;;5.60;100.00;103082.25;5117511;27;20393;-87
2022/01/20 10:44:52;;;;;;;14.75;2.65;;;;;;;5.30;100.00;103078.16;5117451;27;20507;-89
2022/01/20 10:47:28;;;;;;;10.05;1.75;;;;;;;5.49;100.00;103065.56;5120405;27;20070;-87
2022/01/20 10:50:09;;;;;;;9.43;2.30;;;;;;;5.57;100.00;103083.91;5117498;27;20051;-88
2022/01/20 10:52:38;;;;;;;12.30;2.10;;;;;;;5.37;100.00;103084.38;5113261;27;20053;-88
2022/01/20 10:55:08;;;;;;;5.85;2.10;;;;;;;5.86;100.00;103082.78;5123965;27;20409;-89
2022/01/20 10:57:35;;;;;;;7.78;2.13;;;;;;;5.77;100.00;103072.22;5127151;27;20421;-88
2022/01/20 11:00:12;;;;;;;9.20;2.00;;;;;;;5.97;100.00;103084.75;5108560;27;20130;-88
2022/01/20 11:02:39;;;;;;;7.25;2.05;;;;;;;5.90;100.00;103060.31;5105464;27;20057;-89
2022/01/20 11:05:07;;;;;;;11.35;2.80;;;;;;;5.67;100.00;103070.25;5132652;27;20058;-88
2022/01/20 11:07:37;;;;;;;8.52;2.28;;;;;;;5.59;100.00;103067.50;5129658;27;20412;-88
2022/01/20 11:10:06;;;;;;;15.18;2.40;;;;;;;5.66;100.00;103071.97;5124958;27;20036;-88
2022/01/20 11:12:34;;;;;;;8.32;2.03;;;;;;;5.24;100.00;103085.81;5101231;27;20054;-89
2022/01/20 11:15:08;;;;;;;9.23;1.92;;;;;;;4.63;100.00;103085.25;5117254;27;20047;-89
2022/01/20 11:17:36;;;;;;;10.57;1.85;;;;;;;4.65;100.00;103093.06;5132318;27;20438;-89
2022/01/20 11:20:15;;;;;;;9.32;1.77;;;;;;;5.14;100.00;103091.66;5111079;27;20496;-89
2022/01/20 11:22:54;;;;;;;16.00;2.53;;;;;;;5.20;100.00;103102.16;5116321;27;20047;-89
2022/01/20 11:25:25;;;;;;;11.85;2.65;;;;;;;5.23;100.00;103094.44;5107985;27;20405;-89
2022/01/20 11:28:04;;;;;;;17.08;2.97;;;;;;;5.75;100.00;103088.59;5108418;27;20047;-89
2022/01/20 11:30:33;;;;;;;8.80;2.40;;;;;;;5.84;100.00;103088.78;5134546;27;20057;-89
2022/01/20 11:33:07;;;;;;;12.82;2.38;;;;;;;5.78;100.00;103091.28;5134306;27;20058;-89
2022/01/20 11:35:49;;;;;;;11.35;1.98;;;;;;;5.86;100.00;103110.47;5134048;27;20043;-89
2022/01/20 11:38:20;;;;;;;12.50;2.05;;;;;;;5.98;100.00;103073.47;5125922;27;20054;-89
2022/01/20 11:41:00;;;;;;;7.88;1.80;;;;;;;6.40;100.00;103106.34;5105810;28;20056;-89
2022/01/20 11:43:50;;;;;;;8.98;1.70;;;;;;;5.87;100.00;103094.91;5115454;27;20074;-89
2022/01/20 11:46:23;;;;;;;16.25;2.15;;;;;;;5.83;100.00;103094.84;5116915;27;20393;-89
2022/01/20 11:49:00;;;;;;;10.98;1.80;;;;;;;5.73;100.00;103108.50;5114940;27;20048;-89
2022/01/20 11:51:47;;;;;;;5.75;1.75;;;;;;;6.11;100.00;103077.19;5120636;27;20043;-88
2022/01/20 11:54:37;;;;;;;11.02;2.03;;;;;;;6.15;100.00;103110.22;5110075;28;20062;-89
2022/01/20 11:57:14;;;;;;;8.32;1.65;;;;;;;6.14;100.00;103111.06;5121499;27;20051;-89
2022/01/20 11:59:44;;;;;;;5.90;1.60;;;;;;;6.15;100.00;103103.28;5132248;27;20043;-89
2022/01/20 12:02:31;;;;;;;6.50;1.40;;;;;;;6.20;100.00;103106.88;5114513;27;20051;-90
2022/01/20 12:05:01;;;;;;;11.30;1.98;;;;;;;5.75;100.00;103089.47;5116114;27;20035;-89
2022/01/20 12:07:33;;;;;;;9.80;1.55;;;;;;;5.86;100.00;103085.38;5115067;27;20146;-89
2022/01/20 12:10:21;;;;;;;8.27;1.63;;;;;;;6.14;100.00;103085.91;5112682;27;20047;-89
2022/01/20 12:12:47;;;;;;;9.15;1.63;;;;;;;6.16;100.00;103085.94;5121454;27;20070;-89
2022/01/20 12:15:17;;;;;;;13.52;4.18;;;;;;;6.36;100.00;103102.81;5130528;27;20049;-89
2022/01/20 12:17:52;;;;;;;8.13;1.70;;;;;;;6.35;100.00;103080.22;5131801;27;20429;-89
2022/01/20 12:20:24;;;;;;;10.45;1.70;;;;;;;6.33;100.00;103099.28;5104791;28;20451;-89
2022/01/20 12:22:52;;;;;;;6.40;1.60;;;;;;;6.31;100.00;103095.78;5111642;27;20054;-90
2022/01/20 12:25:26;;;;;;;13.77;2.55;;;;;;;6.49;100.00;103084.81;5115254;27;20050;-89
2022/01/20 12:28:07;;;;;;;11.45;3.00;;;;;;;6.38;100.00;103085.50;5116077;27;20069;-88
2022/01/20 12:30:37;;;;;;;6.82;2.08;;;;;;;6.02;100.00;103081.38;5127093;27;20129;-90
2022/01/20 12:33:12;;;;;;;8.65;2.00;;;;;;;5.84;100.00;103093.97;5116521;28;20047;-88
2022/01/20 12:35:43;;;;;;;10.60;2.40;;;;;;;6.29;100.00;103095.75;5106711;27;20392;-88
2022/01/20 12:38:30;;;;;;;9.48;2.00;;;;;;;6.05;100.00;103083.16;5128825;27;20047;-88
2022/01/20 12:41:03;;;;;;;9.48;1.80;;;;;;;6.39;100.00;103095.06;5111767;27;20047;-88
2022/01/20 12:43:34;;;;;;;11.43;2.05;;;;;;;6.41;100.00;103088.16;5114141;27;20078;-87
2022/01/20 12:46:01;;;;;;;9.00;1.63;;;;;;;6.71;100.00;103073.91;5114690;27;20054;-88